This is the latest recevied weather packets stored in our database for station/object EA1IWF-10. If no packets are shown the sender has not sent any weather packets the latest 10 day(s).
| Time | Temp. | Humidity | Pressure | Rain* | Wind** | Luminosity | Snow |
|---|---|---|---|---|---|---|---|
| 1788377889 | 31.67° C | 17% | 1024.5 hPa | - | - | - | - |
| 1788376988 | 31.67° C | 17% | 1024.3 hPa | - | - | - | - |
| 1788376087 | 32.22° C | 16% | 1024.2 hPa | - | - | - | - |
| 1788375186 | 32.78° C | 15% | 1024 hPa | - | - | - | - |
| 1788374286 | 33.89° C | 14% | 1024 hPa | - | - | - | - |
| 1788373385 | 35° C | 13% | 1024 hPa | - | - | - | - |
| 1788372484 | 35.56° C | 13% | 1024 hPa | - | - | - | - |
| 1788371583 | 37.22° C | 13% | 1024.1 hPa | - | - | - | - |
| 1788370682 | 39.44° C | 12% | 1024.1 hPa | - | - | - | - |
| 1788369781 | 42.78° C | 11% | 1024.1 hPa | - | - | - | - |
| 1788368881 | 43.33° C | 11% | 1024.1 hPa | - | - | - | - |
| 1788367980 | 43.33° C | 11% | 1024.1 hPa | - | - | - | - |
| 1788367079 | 45.56° C | 10% | 1024.2 hPa | - | - | - | - |
| 1788366178 | 45° C | 10% | 1024.3 hPa | - | - | - | - |
| 1788365277 | 42.78° C | 11% | 1024.3 hPa | - | - | - | - |
| 1788364377 | 46.67° C | 9% | 1024.4 hPa | - | - | - | - |
| 1788363476 | 45.56° C | 10% | 1024.5 hPa | - | - | - | - |
| 1788362575 | 45° C | 11% | 1024.7 hPa | - | - | - | - |
| 1788361674 | 45.56° C | 11% | 1024.7 hPa | - | - | - | - |
| 1788360773 | 45° C | 12% | 1024.8 hPa | - | - | - | - |
| 1788359873 | 42.22° C | 13% | 1024.7 hPa | - | - | - | - |
| 1788358972 | 37.22° C | 18% | 1024.8 hPa | - | - | - | - |
| 1788217876 | 24.44° C | 47% | 1023.1 hPa | - | - | - | - |
| 1788217456 | 24.44° C | 47% | 1023.1 hPa | - | - | - | - |
| 1788216609 | 23.33° C | 45% | 1023.2 hPa | - | - | - | - |
* Rain since midnight (hover to see other rain measurements)
** Current wind speed in m/s (hover to see current wind gust speed)